Time;durP1;ratioP1;P1;durP2;ratioP2;P2;SDS_P1;SDS_P2;PMS_P1;PMS_P2;Temp;Humidity;BMP_temperature;BMP_pressure;BME280_temperature;BME280_humidity;BME280_pressure;Samples;Min_cycle;Max_cycle;Signal;HPM_P1;HPM_P2
2021/07/22 00:00:08;;;;;;;10.30;9.10;;;;;;;23.53;59.74;101973.47;4919766;29;20091;-79
2021/07/22 00:02:34;;;;;;;13.50;8.95;;;;;;;23.50;60.27;101979.88;4919687;29;20080;-78
2021/07/22 00:05:00;;;;;;;11.88;9.13;;;;;;;23.47;60.16;101970.28;4920359;29;20508;-80
2021/07/22 00:07:29;;;;;;;10.63;9.45;;;;;;;23.44;60.41;101975.00;4919915;29;20131;-79
2021/07/22 00:09:56;;;;;;;12.02;9.23;;;;;;;23.47;60.30;101985.41;4919814;29;20052;-77
2021/07/22 00:12:24;;;;;;;10.95;9.68;;;;;;;23.37;61.20;101989.72;4919153;29;20044;-79
2021/07/22 00:14:50;;;;;;;11.82;9.60;;;;;;;23.37;61.21;101974.56;4919566;29;20062;-79
2021/07/22 00:17:18;;;;;;;11.30;9.70;;;;;;;23.11;61.10;101937.31;4919077;29;20044;-79
2021/07/22 00:19:44;;;;;;;15.57;10.13;;;;;;;23.24;61.27;101974.63;4919490;29;20052;-78
2021/07/22 00:22:10;;;;;;;11.65;9.18;;;;;;;23.26;61.49;101970.03;4924288;29;20075;-79
2021/07/22 00:24:36;;;;;;;13.80;9.98;;;;;;;23.27;61.64;101981.53;4924821;29;20489;-80
2021/07/22 00:27:02;;;;;;;14.35;9.77;;;;;;;23.09;62.23;101983.66;4921016;29;20055;-80
2021/07/22 00:29:30;;;;;;;13.55;10.15;;;;;;;23.11;62.18;101981.75;4919359;29;20147;-81
2021/07/22 00:31:58;;;;;;;15.02;9.32;;;;;;;23.04;62.36;101970.69;4919410;29;20052;-81
2021/07/22 00:34:23;;;;;;;12.68;10.10;;;;;;;23.09;62.20;101979.19;4919300;29;20052;-80
2021/07/22 00:36:49;;;;;;;11.45;9.75;;;;;;;23.13;62.28;101982.47;4918890;29;20056;-81
2021/07/22 00:39:17;;;;;;;11.20;9.60;;;;;;;23.13;62.22;101978.03;4923349;29;20065;-81
2021/07/22 00:41:45;;;;;;;13.90;9.88;;;;;;;22.93;62.37;101933.31;4919524;29;20051;-81
2021/07/22 00:44:12;;;;;;;13.75;10.45;;;;;;;23.06;62.77;101968.75;4919158;29;20090;-81
2021/07/22 00:46:38;;;;;;;13.30;9.95;;;;;;;23.06;63.07;101973.22;4918379;29;20048;-81
2021/07/22 00:49:08;;;;;;;11.98;10.02;;;;;;;23.02;62.82;101973.47;4919281;29;20196;-81
2021/07/22 00:51:34;;;;;;;11.27;9.70;;;;;;;23.16;62.25;101979.63;4919324;29;20107;-81
2021/07/22 00:54:00;;;;;;;12.95;10.13;;;;;;;23.17;62.72;101981.34;4918909;29;20056;-82
2021/07/22 00:56:27;;;;;;;16.35;10.40;;;;;;;23.13;62.75;101971.81;4919261;29;20059;-81
2021/07/22 00:58:53;;;;;;;16.27;9.70;;;;;;;23.13;62.99;101977.16;4916846;29;20054;-81
2021/07/22 01:01:19;;;;;;;14.15;10.02;;;;;;;23.07;62.99;101980.25;4918018;29;20462;-81
2021/07/22 01:03:45;;;;;;;14.35;9.77;;;;;;;22.99;63.14;101981.66;4919114;29;20048;-81
2021/07/22 01:06:11;;;;;;;15.20;11.13;;;;;;;22.87;63.41;101969.22;4918904;29;20048;-81
2021/07/22 01:08:37;;;;;;;12.07;10.35;;;;;;;22.82;63.79;101963.38;4917489;29;20186;-82
2021/07/22 01:11:04;;;;;;;14.27;10.55;;;;;;;22.81;64.03;101982.94;4918266;29;20142;-81
2021/07/22 01:13:30;;;;;;;15.32;11.32;;;;;;;22.78;64.31;101977.84;4918521;29;20442;-82
2021/07/22 01:15:56;;;;;;;13.07;10.45;;;;;;;22.74;63.96;101963.03;4918633;29;20082;-81
2021/07/22 01:18:22;;;;;;;14.98;11.00;;;;;;;22.77;64.49;101982.31;4918872;29;20106;-80
2021/07/22 01:20:48;;;;;;;13.73;10.38;;;;;;;22.74;64.25;101979.88;4912223;29;20413;-81
2021/07/22 01:23:14;;;;;;;14.85;10.43;;;;;;;22.65;64.92;101981.34;4918374;29;20138;-81
2021/07/22 01:25:43;;;;;;;14.68;9.75;;;;;;;22.62;64.65;101972.72;4918881;29;20138;-81
2021/07/22 01:28:09;;;;;;;13.10;9.88;;;;;;;22.55;64.76;101964.31;4919026;29;20051;-81
2021/07/22 01:30:35;;;;;;;15.48;11.27;;;;;;;22.62;65.05;101978.03;4919296;29;20410;-81
2021/07/22 01:33:01;;;;;;;11.80;10.63;;;;;;;22.62;64.88;101978.03;4920541;29;20143;-79
2021/07/22 01:35:27;;;;;;;12.60;10.60;;;;;;;22.58;65.22;101973.91;4925997;29;20048;-81
2021/07/22 01:37:53;;;;;;;14.70;10.90;;;;;;;22.54;65.04;101973.25;4928734;29;20048;-82
2021/07/22 01:40:19;;;;;;;13.48;10.88;;;;;;;22.60;65.12;101975.50;4927127;29;20055;-82
2021/07/22 01:42:46;;;;;;;15.32;10.52;;;;;;;22.43;65.12;101949.22;4937899;28;20080;-80
2021/07/22 01:45:12;;;;;;;15.15;11.07;;;;;;;22.43;65.01;101955.38;4942141;28;20044;-80
2021/07/22 01:47:39;;;;;;;16.05;10.45;;;;;;;22.48;65.32;101966.53;4941622;28;20028;-79
2021/07/22 01:50:05;;;;;;;14.65;11.35;;;;;;;22.35;66.03;101984.25;4942167;28;20573;-80
2021/07/22 01:52:31;;;;;;;14.30;11.32;;;;;;;22.33;65.98;101978.22;4928760;28;20119;-82
2021/07/22 01:54:57;;;;;;;12.27;10.98;;;;;;;22.31;66.18;101974.81;4922217;29;20079;-81
2021/07/22 01:57:24;;;;;;;16.38;11.13;;;;;;;22.23;66.08;101962.88;4919052;29;20079;-81
2021/07/22 01:59:52;;;;;;;15.82;12.20;;;;;;;22.26;66.06;101974.28;4917433;29;20449;-82
2021/07/22 02:02:21;;;;;;;16.02;10.90;;;;;;;22.24;66.32;101979.69;4918180;29;20370;-79
2021/07/22 02:04:47;;;;;;;14.90;11.85;;;;;;;22.15;66.42;101967.84;4917672;29;20075;-81
2021/07/22 02:07:13;;;;;;;18.60;11.93;;;;;;;22.16;66.87;101977.53;4917468;29;20416;-81
2021/07/22 02:09:39;;;;;;;17.55;11.27;;;;;;;22.00;66.92;101942.31;4913179;29;20057;-81
2021/07/22 02:12:05;;;;;;;13.75;11.70;;;;;;;22.07;66.87;101960.41;4909366;29;20048;-81
2021/07/22 02:14:31;;;;;;;13.88;11.73;;;;;;;22.06;66.63;101961.34;4914537;29;20079;-81
2021/07/22 02:16:57;;;;;;;14.82;11.23;;;;;;;22.07;66.42;101964.88;4900978;29;20052;-81
2021/07/22 02:19:23;;;;;;;13.52;11.10;;;;;;;22.02;67.18;101964.31;4917556;29;20040;-81
2021/07/22 02:21:49;;;;;;;17.48;11.73;;;;;;;21.98;67.25;101971.63;4918149;29;20056;-81
2021/07/22 02:24:16;;;;;;;14.18;11.52;;;;;;;21.99;67.23;101967.19;4912868;29;20052;-81
2021/07/22 02:26:42;;;;;;;13.90;10.80;;;;;;;22.04;67.12;101971.22;4918766;29;20048;-81
2021/07/22 02:29:08;;;;;;;14.43;11.82;;;;;;;21.99;67.08;101978.66;4918346;29;20055;-81
2021/07/22 02:31:35;;;;;;;13.27;11.10;;;;;;;21.95;67.57;101982.50;4917631;29;20413;-81
2021/07/22 02:34:02;;;;;;;12.95;11.25;;;;;;;21.82;67.47;101963.00;4916775;29;20497;-81
2021/07/22 02:36:28;;;;;;;16.30;12.00;;;;;;;21.90;67.21;101972.16;4916866;29;20048;-81
2021/07/22 02:38:55;;;;;;;17.55;11.95;;;;;;;21.92;67.78;101985.34;4916483;29;20394;-81
2021/07/22 02:41:21;;;;;;;14.13;11.55;;;;;;;21.80;67.82;101965.75;4916881;29;20063;-82
2021/07/22 02:43:47;;;;;;;14.45;11.50;;;;;;;21.80;67.50;101962.22;4916712;29;20048;-80
2021/07/22 02:46:14;;;;;;;15.57;11.68;;;;;;;21.90;67.38;101982.78;4917076;29;20075;-82
2021/07/22 02:48:40;;;;;;;13.60;11.65;;;;;;;21.76;67.94;101966.88;4917479;29;20508;-82
2021/07/22 02:51:07;;;;;;;15.07;11.35;;;;;;;21.84;67.95;101985.00;4916634;29;20048;-80
2021/07/22 02:53:36;;;;;;;15.75;11.68;;;;;;;21.69;68.61;101978.88;4926236;29;20052;-79
2021/07/22 02:56:03;;;;;;;17.02;11.88;;;;;;;21.65;68.35;101977.38;4921379;29;20423;-78
2021/07/22 02:58:30;;;;;;;13.98;11.52;;;;;;;21.71;68.23;101983.13;4922595;29;20666;-79
2021/07/22 03:00:56;;;;;;;13.02;11.48;;;;;;;21.67;68.73;101981.63;4928151;29;20170;-79
2021/07/22 03:03:23;;;;;;;13.43;12.02;;;;;;;21.68;68.60;101983.34;4924825;29;20111;-80
2021/07/22 03:05:49;;;;;;;13.55;10.98;;;;;;;21.65;68.28;101985.34;4920501;29;20052;-80
2021/07/22 03:08:16;;;;;;;14.18;12.10;;;;;;;21.55;68.79;101966.47;4918274;29;20096;-79
2021/07/22 03:10:42;;;;;;;15.18;11.55;;;;;;;21.62;68.53;101983.75;4916153;29;20055;-81
2021/07/22 03:13:08;;;;;;;13.93;11.82;;;;;;;21.65;68.24;101988.84;4917404;29;20056;-81
2021/07/22 03:15:34;;;;;;;13.75;12.13;;;;;;;21.53;68.95;101986.94;4916922;29;20048;-81
2021/07/22 03:18:00;;;;;;;14.77;12.85;;;;;;;21.56;69.16;101986.78;4917216;29;20127;-82
2021/07/22 03:20:27;;;;;;;15.05;12.32;;;;;;;21.49;69.41;101988.94;4916835;29;20112;-80
2021/07/22 03:22:53;;;;;;;13.25;11.50;;;;;;;21.41;69.32;101981.50;4916963;29;20089;-81
2021/07/22 03:25:20;;;;;;;13.68;12.32;;;;;;;21.44;69.12;101993.72;4917029;29;20055;-80
2021/07/22 03:27:46;;;;;;;18.73;13.27;;;;;;;21.38;69.39;101994.94;4915708;29;20059;-80
2021/07/22 03:30:13;;;;;;;18.98;13.48;;;;;;;21.37;69.42;101997.72;4916068;29;20056;-81
2021/07/22 03:32:41;;;;;;;16.30;13.52;;;;;;;21.28;69.75;101980.56;4916943;29;20409;-81
2021/07/22 03:35:09;;;;;;;14.05;11.32;;;;;;;21.20;69.68;101972.22;4916926;29;20151;-79
2021/07/22 03:37:36;;;;;;;14.57;12.05;;;;;;;21.34;69.68;102005.88;4903266;29;20100;-78
2021/07/22 03:40:02;;;;;;;16.08;13.10;;;;;;;21.26;69.95;101987.75;4897793;29;20151;-79
2021/07/22 03:42:30;;;;;;;15.60;11.38;;;;;;;21.27;69.67;101989.47;4907308;29;20048;-78
2021/07/22 03:44:56;;;;;;;13.95;12.43;;;;;;;21.23;70.17;101994.13;4916313;29;20048;-78
2021/07/22 03:47:22;;;;;;;15.95;12.93;;;;;;;21.24;70.18;101997.66;4916567;29;20099;-79
2021/07/22 03:49:48;;;;;;;14.10;12.43;;;;;;;21.22;69.79;101995.06;4916429;29;20413;-78
2021/07/22 03:52:13;;;;;;;16.58;13.05;;;;;;;21.04;70.13;101973.16;4914068;29;20052;-78
2021/07/22 03:54:39;;;;;;;16.23;12.50;;;;;;;21.13;70.22;101989.47;4916226;29;20092;-78
2021/07/22 03:57:06;;;;;;;16.67;13.15;;;;;;;21.09;70.38;101992.34;4915522;29;20048;-78
2021/07/22 03:59:32;;;;;;;17.15;12.93;;;;;;;20.91;70.41;101958.97;4916442;29;20044;-79
2021/07/22 04:02:01;;;;;;;15.05;12.43;;;;;;;21.14;70.25;101993.84;4916114;29;20048;-81
2021/07/22 04:04:27;;;;;;;15.80;12.30;;;;;;;21.11;70.48;101993.06;4916292;29;20485;-82
2021/07/22 04:06:53;;;;;;;14.15;12.65;;;;;;;21.06;70.34;101989.88;4916621;29;20059;-82
2021/07/22 04:09:19;;;;;;;17.02;13.00;;;;;;;20.97;70.45;101976.31;4916673;29;20052;-80
2021/07/22 04:11:45;;;;;;;14.27;12.07;;;;;;;21.07;70.72;101998.69;4918174;29;20056;-82
2021/07/22 04:14:12;;;;;;;15.00;13.20;;;;;;;21.02;70.68;101988.38;4919870;29;20127;-81
2021/07/22 04:16:38;;;;;;;16.67;13.27;;;;;;;20.99;70.90;101993.84;4919173;29;20098;-81
2021/07/22 04:19:04;;;;;;;15.82;14.07;;;;;;;21.03;70.58;102000.69;4920201;29;20048;-81
2021/07/22 04:21:31;;;;;;;17.73;14.18;;;;;;;20.83;71.40;101998.41;4919739;29;20040;-81
2021/07/22 04:23:57;;;;;;;17.80;15.15;;;;;;;20.77;70.97;101986.34;4919158;29;20048;-81
2021/07/22 04:26:23;;;;;;;19.95;14.20;;;;;;;20.81;71.33;101997.63;4921999;29;20059;-81
2021/07/22 04:28:52;;;;;;;18.45;14.27;;;;;;;20.80;71.08;101996.81;4921249;29;20130;-81
2021/07/22 04:31:19;;;;;;;16.90;14.00;;;;;;;20.86;71.18;102007.03;4921597;29;20405;-81
2021/07/22 04:33:48;;;;;;;16.77;14.40;;;;;;;20.69;71.53;101993.88;4919825;29;20413;-81
2021/07/22 04:36:14;;;;;;;17.10;14.82;;;;;;;20.81;71.09;101997.63;4909759;29;20060;-81
2021/07/22 04:38:41;;;;;;;19.00;14.85;;;;;;;20.75;71.34;102002.38;4909947;29;20048;-81
2021/07/22 04:41:07;;;;;;;16.67;13.95;;;;;;;20.79;71.15;102009.19;4919112;29;20123;-80
2021/07/22 04:43:33;;;;;;;22.45;15.95;;;;;;;20.79;71.30;102011.00;4919145;29;20059;-81
2021/07/22 04:46:04;;;;;;;20.35;15.52;;;;;;;20.66;71.49;102000.25;4919188;29;20052;-81
2021/07/22 04:48:31;;;;;;;18.55;15.23;;;;;;;20.64;71.39;102010.94;4913708;29;20044;-81
2021/07/22 04:50:58;;;;;;;18.92;15.60;;;;;;;20.72;71.54;102013.16;4907767;29;20111;-81
2021/07/22 04:53:24;;;;;;;22.55;15.65;;;;;;;20.76;71.36;102024.44;4920161;29;20054;-81
2021/07/22 04:55:50;;;;;;;18.25;15.57;;;;;;;20.72;70.82;102012.31;4919919;29;20412;-81
2021/07/22 04:58:16;;;;;;;16.95;15.25;;;;;;;20.84;70.61;102027.50;4919863;29;20125;-81
2021/07/22 05:00:42;;;;;;;17.52;15.18;;;;;;;20.98;70.23;102028.47;4902304;29;20056;-82
2021/07/22 05:03:09;;;;;;;19.52;15.98;;;;;;;20.92;70.05;102022.59;4900104;29;20553;-81
2021/07/22 05:05:36;;;;;;;18.73;16.23;;;;;;;21.01;69.82;102026.47;4899620;29;20075;-82
2021/07/22 05:08:04;;;;;;;17.85;15.85;;;;;;;21.08;69.80;102027.81;4916408;29;20453;-81
2021/07/22 05:10:30;;;;;;;19.35;16.05;;;;;;;21.20;69.30;102026.19;4919886;29;20048;-81
2021/07/22 05:12:58;;;;;;;18.75;15.45;;;;;;;21.37;68.30;102021.63;4917914;29;20131;-82
2021/07/22 05:15:25;;;;;;;21.60;14.93;;;;;;;21.52;67.67;102018.00;4918985;29;20486;-81
2021/07/22 05:17:51;;;;;;;19.55;16.27;;;;;;;21.67;67.16;102018.84;4918888;29;20126;-82
2021/07/22 05:20:17;;;;;;;16.83;15.02;;;;;;;21.42;67.42;102001.78;4918931;29;20200;-81
2021/07/22 05:22:44;;;;;;;20.08;16.65;;;;;;;21.34;68.38;102027.97;4916497;29;20063;-80
2021/07/22 05:25:13;;;;;;;15.45;13.90;;;;;;;21.32;68.99;102024.56;4918687;29;20496;-81
2021/07/22 05:27:39;;;;;;;16.45;13.50;;;;;;;21.26;68.22;102009.00;4918527;29;20180;-80
2021/07/22 05:30:06;;;;;;;19.92;15.02;;;;;;;21.36;68.53;102031.41;4918234;29;20131;-81
2021/07/22 05:32:33;;;;;;;19.00;14.93;;;;;;;21.02;69.11;102011.38;4918026;29;20056;-81
2021/07/22 05:35:00;;;;;;;17.05;15.25;;;;;;;21.03;69.24;102010.44;4917963;29;20505;-81
2021/07/22 05:37:26;;;;;;;17.67;14.82;;;;;;;21.22;69.05;102034.91;4918652;29;20059;-80
2021/07/22 05:39:52;;;;;;;18.08;15.20;;;;;;;21.22;69.38;102034.06;4918712;29;20056;-80
2021/07/22 05:42:17;;;;;;;17.02;15.23;;;;;;;21.12;69.06;102025.81;4917931;29;20063;-81
2021/07/22 05:44:44;;;;;;;19.27;14.88;;;;;;;21.36;68.59;102031.41;4919042;29;20052;-81
2021/07/22 05:47:11;;;;;;;22.42;17.40;;;;;;;21.32;68.41;102026.38;4918484;29;20048;-81
2021/07/22 05:49:37;;;;;;;18.95;15.40;;;;;;;21.15;68.69;101987.59;4917836;29;20044;-81
2021/07/22 05:52:04;;;;;;;20.33;15.63;;;;;;;21.49;68.30;102035.94;4917890;29;20044;-80
2021/07/22 05:54:30;;;;;;;17.67;15.25;;;;;;;21.37;68.53;102033.13;4918428;29;20059;-81
2021/07/22 05:56:56;;;;;;;18.05;14.18;;;;;;;21.33;68.64;102014.81;4919928;29;20486;-81
2021/07/22 05:59:22;;;;;;;18.42;15.50;;;;;;;21.31;69.05;102044.09;4916912;29;20048;-81
2021/07/22 06:01:49;;;;;;;17.92;14.15;;;;;;;21.23;68.53;102009.22;4917905;29;20048;-81
2021/07/22 06:04:15;;;;;;;18.65;15.65;;;;;;;21.53;67.99;102043.63;4917622;29;20055;-81
2021/07/22 06:06:43;;;;;;;17.42;14.60;;;;;;;21.52;68.24;102041.03;4918642;29;20048;-81
2021/07/22 06:09:09;;;;;;;15.85;14.15;;;;;;;21.63;67.86;102046.56;4917718;29;20068;-80
2021/07/22 06:11:37;;;;;;;18.00;15.23;;;;;;;21.70;67.57;102049.69;4918376;29;20048;-80
2021/07/22 06:14:06;;;;;;;16.42;14.60;;;;;;;21.61;68.06;102031.69;4916777;29;20052;-81
2021/07/22 06:17:02;;;;;;;15.93;13.82;;;;;;;21.70;67.82;102033.72;4914802;29;20119;-81
2021/07/22 06:19:34;;;;;;;19.90;15.30;;;;;;;21.79;67.58;102037.59;4921469;29;20044;-79
2021/07/22 06:22:03;;;;;;;17.83;14.98;;;;;;;21.91;66.92;102039.47;4919732;29;20052;-79
2021/07/22 06:24:30;;;;;;;20.95;15.40;;;;;;;21.97;66.73;102044.41;4919292;29;20052;-82
2021/07/22 06:26:56;;;;;;;18.50;15.38;;;;;;;22.04;66.84;102039.50;4917568;29;20048;-82
2021/07/22 06:29:23;;;;;;;17.85;14.35;;;;;;;22.19;66.36;102038.50;4915299;29;20059;-81
2021/07/22 06:31:49;;;;;;;23.17;14.23;;;;;;;22.27;66.06;102029.19;4917530;29;20048;-81
2021/07/22 06:34:15;;;;;;;21.63;15.23;;;;;;;22.38;65.75;102037.31;4911193;29;20167;-81
2021/07/22 06:36:41;;;;;;;16.50;14.80;;;;;;;22.50;65.55;102036.47;4918509;29;20135;-81
2021/07/22 06:39:07;;;;;;;18.17;13.77;;;;;;;22.52;65.22;102037.25;4919330;29;20412;-81
2021/07/22 06:41:34;;;;;;;16.73;14.82;;;;;;;22.67;64.48;102039.81;4919208;29;20044;-81
2021/07/22 06:44:00;;;;;;;21.05;15.75;;;;;;;22.89;62.84;102031.19;4918006;29;20055;-81
2021/07/22 06:46:27;;;;;;;19.25;15.70;;;;;;;22.95;62.54;102027.22;4917788;29;20052;-80
2021/07/22 06:48:54;;;;;;;17.88;15.98;;;;;;;22.83;62.35;102016.50;4918201;29;20059;-82
2021/07/22 06:51:22;;;;;;;17.52;15.73;;;;;;;22.97;61.58;102015.53;4919543;29;20405;-82
2021/07/22 06:53:49;;;;;;;19.13;15.93;;;;;;;23.21;60.92;102025.44;4908183;29;20044;-83
2021/07/22 06:56:15;;;;;;;20.40;15.80;;;;;;;23.22;60.39;102023.63;4901205;29;20052;-82
2021/07/22 06:58:41;;;;;;;18.05;15.65;;;;;;;23.23;60.16;102022.66;4917758;29;20052;-83
2021/07/22 07:01:07;;;;;;;19.13;15.43;;;;;;;23.23;60.45;102004.88;4920563;29;20052;-82
2021/07/22 07:03:33;;;;;;;19.70;14.68;;;;;;;23.33;60.37;102005.91;4927019;29;20052;-82
2021/07/22 07:05:59;;;;;;;17.27;15.48;;;;;;;23.44;59.87;102018.47;4934826;29;20044;-81
2021/07/22 07:08:25;;;;;;;19.02;15.60;;;;;;;23.52;59.72;102020.56;4934107;29;20079;-81
2021/07/22 07:10:51;;;;;;;17.58;15.32;;;;;;;23.56;59.22;102010.53;4928620;29;20070;-79
2021/07/22 07:13:17;;;;;;;18.35;16.10;;;;;;;23.53;59.36;102022.28;4927849;29;20048;-79
2021/07/22 07:15:44;;;;;;;15.25;13.63;;;;;;;23.65;59.52;102010.72;4927246;29;20055;-79
2021/07/22 07:18:10;;;;;;;17.65;14.30;;;;;;;23.69;58.74;102014.00;4924033;29;20048;-80
2021/07/22 07:20:37;;;;;;;20.15;14.05;;;;;;;23.92;58.26;102030.13;4923305;29;20048;-79
2021/07/22 07:23:03;;;;;;;16.35;14.65;;;;;;;24.01;57.15;102028.63;4922581;29;20175;-79
2021/07/22 07:25:29;;;;;;;14.68;12.90;;;;;;;24.18;56.56;102025.56;4930201;29;20095;-81
2021/07/22 07:27:56;;;;;;;18.63;13.55;;;;;;;24.32;55.94;102018.34;4940643;28;20036;-79
2021/07/22 07:30:22;;;;;;;16.17;13.48;;;;;;;24.13;56.09;102020.56;4938948;29;20052;-79
2021/07/22 07:32:48;;;;;;;15.48;12.90;;;;;;;24.20;56.22;102025.44;4932662;29;20059;-80
2021/07/22 07:35:15;;;;;;;16.52;12.90;;;;;;;24.24;56.18;102014.44;4918123;29;20056;-80
2021/07/22 07:37:42;;;;;;;13.75;12.43;;;;;;;24.37;56.00;102016.16;4940212;28;20036;-77
2021/07/22 07:40:10;;;;;;;15.52;13.18;;;;;;;24.37;55.76;102011.66;4924220;28;20054;-79
2021/07/22 07:42:37;;;;;;;16.73;12.38;;;;;;;24.53;55.45;102013.16;4920561;29;20056;-80
2021/07/22 07:45:06;;;;;;;16.73;12.55;;;;;;;24.66;54.64;102007.75;4917851;29;20100;-78
2021/07/22 07:47:32;;;;;;;14.45;12.77;;;;;;;24.53;54.96;102003.34;4925193;29;20072;-80
2021/07/22 07:50:00;;;;;;;14.48;12.07;;;;;;;24.52;55.47;102016.81;4922615;29;20063;-78
2021/07/22 07:52:29;;;;;;;13.30;11.75;;;;;;;24.62;55.36;102015.97;4923973;29;20044;-81
2021/07/22 07:54:56;;;;;;;15.32;12.93;;;;;;;24.73;54.55;102030.34;4924376;29;20096;-81
2021/07/22 07:57:22;;;;;;;17.95;12.10;;;;;;;24.87;54.29;102026.59;4921788;29;20489;-81
2021/07/22 07:59:48;;;;;;;18.50;13.05;;;;;;;24.68;54.33;102001.34;4921564;29;20048;-81
2021/07/22 08:02:17;;;;;;;17.38;12.73;;;;;;;24.87;54.40;102037.28;4921393;29;20044;-80
2021/07/22 08:04:43;;;;;;;14.60;12.38;;;;;;;24.99;54.19;102019.47;4920905;29;20063;-79
2021/07/22 08:07:10;;;;;;;18.55;12.90;;;;;;;25.14;53.74;102030.75;4922655;29;20044;-78
2021/07/22 08:09:38;;;;;;;16.13;13.07;;;;;;;25.07;53.89;102017.88;4922617;29;20168;-78
2021/07/22 08:12:05;;;;;;;17.75;11.85;;;;;;;25.25;53.59;102028.94;4922605;29;20441;-80
2021/07/22 08:14:41;;;;;;;16.52;11.50;;;;;;;25.60;52.59;102020.84;4922687;29;20048;-80
2021/07/22 08:17:12;;;;;;;19.20;13.63;;;;;;;25.62;52.39;102033.16;4925895;29;20059;-81
2021/07/22 08:19:38;;;;;;;16.77;12.75;;;;;;;25.46;52.71;102020.16;4924922;29;20438;-79
2021/07/22 08:22:04;;;;;;;18.88;13.38;;;;;;;25.54;52.48;102027.56;4925921;29;20104;-79
2021/07/22 08:24:31;;;;;;;19.42;13.27;;;;;;;25.70;52.68;102025.34;4928676;29;20064;-77
2021/07/22 08:26:58;;;;;;;21.00;13.10;;;;;;;25.67;52.38;102024.72;4933699;29;20048;-79
2021/07/22 08:29:27;;;;;;;16.58;12.70;;;;;;;25.80;52.15;102012.06;4936585;29;20094;-78
2021/07/22 08:31:53;;;;;;;16.88;13.27;;;;;;;26.13;51.05;102023.63;4936717;29;20131;-78
2021/07/22 08:34:20;;;;;;;17.02;14.18;;;;;;;25.92;51.94;102004.00;4937334;29;20075;-79
2021/07/22 08:36:46;;;;;;;17.77;12.80;;;;;;;25.77;52.04;101979.38;4919723;29;20072;-77
2021/07/22 08:39:12;;;;;;;15.32;11.95;;;;;;;26.17;51.55;102008.16;4933395;29;20064;-78
2021/07/22 08:41:47;;;;;;;12.52;11.10;;;;;;;26.46;51.04;102016.41;4922907;29;20051;-78
2021/07/22 08:44:15;;;;;;;16.27;12.43;;;;;;;26.56;50.63;102015.63;4921750;29;20226;-77
2021/07/22 08:46:44;;;;;;;15.05;12.15;;;;;;;26.27;51.56;102005.56;4919978;29;20051;-79
2021/07/22 08:49:10;;;;;;;15.60;12.32;;;;;;;26.46;51.34;102011.03;4919876;29;20051;-78
2021/07/22 08:51:37;;;;;;;15.63;12.00;;;;;;;26.61;51.41;102010.72;4923232;29;20084;-79
2021/07/22 08:54:03;;;;;;;17.05;11.88;;;;;;;26.74;50.46;102002.47;4922388;29;20052;-77
2021/07/22 08:56:31;;;;;;;16.88;11.52;;;;;;;26.65;50.75;102009.50;4924551;29;20063;-79
2021/07/22 08:59:00;;;;;;;13.27;11.60;;;;;;;26.58;50.06;101974.34;4923872;29;20071;-79
2021/07/22 09:01:30;;;;;;;13.80;12.27;;;;;;;26.78;49.59;101991.41;4923564;29;20048;-77
2021/07/22 09:04:00;;;;;;;14.20;11.95;;;;;;;26.75;50.09;102005.03;4923456;29;20048;-79
2021/07/22 09:06:26;;;;;;;16.45;11.57;;;;;;;26.84;49.84;102006.06;4921686;29;20143;-79
2021/07/22 09:08:55;;;;;;;16.40;12.73;;;;;;;26.89;49.38;102005.66;4922135;29;20052;-80
2021/07/22 09:11:21;;;;;;;11.73;10.25;;;;;;;27.08;49.33;102003.06;4921321;29;20442;-80
2021/07/22 09:14:08;;;;;;;12.30;9.63;;;;;;;27.22;47.60;101990.28;4922855;29;20048;-81
2021/07/22 09:16:36;;;;;;;14.50;10.30;;;;;;;27.02;48.54;101987.53;4921363;29;20055;-82
2021/07/22 09:19:02;;;;;;;15.05;10.80;;;;;;;27.22;47.77;101976.88;4921017;29;20052;-83
2021/07/22 09:21:28;;;;;;;12.95;10.00;;;;;;;27.32;47.37;101981.28;4910342;29;20056;-83
2021/07/22 09:24:20;;;;;;;13.85;10.73;;;;;;;27.48;47.51;101998.72;4921340;29;20044;-78
2021/07/22 09:26:50;;;;;;;12.20;10.00;;;;;;;27.67;47.27;101999.72;4933302;29;20079;-77
2021/07/22 09:29:18;;;;;;;12.70;9.55;;;;;;;27.89;46.66;102001.28;4921349;29;20056;-78
2021/07/22 09:31:46;;;;;;;12.48;10.50;;;;;;;28.02;46.28;102006.38;4920919;29;20048;-77
2021/07/22 09:34:18;;;;;;;13.75;10.00;;;;;;;27.83;46.74;101975.00;4921241;29;20044;-77
2021/07/22 09:36:44;;;;;;;10.43;9.32;;;;;;;27.94;46.80;102005.25;4919841;29;20062;-78
2021/07/22 09:39:23;;;;;;;12.15;10.07;;;;;;;28.00;47.02;102005.66;4919897;29;20051;-77
2021/07/22 09:42:00;;;;;;;12.35;9.73;;;;;;;28.15;45.96;101996.22;4920705;29;20084;-78
2021/07/22 09:44:37;;;;;;;13.30;9.95;;;;;;;28.11;46.18;102003.72;4921098;29;20063;-77
2021/07/22 09:47:08;;;;;;;10.00;8.88;;;;;;;28.02;47.03;101996.47;4920835;29;20551;-79
2021/07/22 09:49:35;;;;;;;12.55;9.95;;;;;;;28.11;46.66;101992.97;4921238;29;20052;-78
2021/07/22 09:52:10;;;;;;;12.90;10.35;;;;;;;28.20;46.19;101993.94;4922809;29;20104;-77
2021/07/22 09:54:38;;;;;;;11.75;10.48;;;;;;;28.12;46.26;101988.44;4923827;29;20058;-80
2021/07/22 09:57:14;;;;;;;11.85;10.63;;;;;;;28.35;45.94;101998.88;4906289;29;20416;-79
2021/07/22 09:59:46;;;;;;;10.68;9.45;;;;;;;28.19;45.14;101997.63;4905585;29;20127;-79
2021/07/22 10:02:22;;;;;;;11.80;9.20;;;;;;;28.10;45.18;101996.66;4911793;29;20095;-78
2021/07/22 10:04:57;;;;;;;12.88;10.45;;;;;;;28.08;45.84;101995.94;4925709;29;20076;-79
2021/07/22 10:07:25;;;;;;;13.25;10.25;;;;;;;28.13;45.29;101990.13;4930196;29;20048;-80
2021/07/22 10:09:53;;;;;;;11.23;10.15;;;;;;;28.18;45.92;101993.22;4925575;29;20067;-78
2021/07/22 10:12:21;;;;;;;11.02;9.55;;;;;;;27.89;45.58;101918.97;4930975;29;20048;-78
2021/07/22 10:14:54;;;;;;;10.95;9.68;;;;;;;28.55;45.01;101984.41;4924719;29;20056;-76
2021/07/22 10:17:29;;;;;;;;;;;;;;;28.57;45.35;101989.63;4919491;29;20048;-77
2021/07/22 10:19:58;;;;;;;10.35;9.10;;;;;;;28.51;44.81;101988.34;4910818;29;20380;-78
2021/07/22 10:22:26;;;;;;;13.20;9.85;;;;;;;28.77;44.80;101971.63;4918466;29;20052;-78
2021/07/22 10:24:56;;;;;;;11.32;9.65;;;;;;;29.08;43.67;101982.94;4918231;29;20059;-76
2021/07/22 10:27:42;;;;;;;13.60;10.32;;;;;;;29.28;44.07;101968.53;4917930;29;20063;-78
2021/07/22 10:30:15;;;;;;;12.25;9.60;;;;;;;29.34;43.44;101976.03;4919556;29;20051;-80
2021/07/22 10:33:08;;;;;;;12.27;9.52;;;;;;;29.35;43.50;101973.19;4923045;29;20052;-79
2021/07/22 10:35:35;;;;;;;13.38;11.70;;;;;;;29.23;43.52;101979.75;4899160;29;20398;-78
2021/07/22 10:38:17;;;;;;;13.02;9.52;;;;;;;29.12;43.99;101978.09;4910813;29;20055;-80
2021/07/22 10:40:46;;;;;;;14.57;10.30;;;;;;;29.45;43.32;101967.72;4918757;29;20067;-78
2021/07/22 10:43:30;;;;;;;11.70;9.93;;;;;;;29.73;43.18;101970.34;4916170;29;20099;-79
2021/07/22 10:45:58;;;;;;;10.32;8.60;;;;;;;29.74;42.85;101952.38;4917657;29;20494;-77
2021/07/22 10:48:28;;;;;;;12.45;9.77;;;;;;;29.53;43.02;101970.50;4918313;29;20053;-77
2021/07/22 10:50:54;;;;;;;12.15;8.73;;;;;;;29.81;42.41;101969.56;4917854;29;20048;-79
2021/07/22 10:53:44;;;;;;;9.98;8.30;;;;;;;30.07;41.43;101966.97;4912402;29;20080;-82
2021/07/22 10:56:22;;;;;;;12.27;9.43;;;;;;;29.99;41.59;101972.28;4899905;29;20080;-79
2021/07/22 10:58:52;;;;;;;12.50;9.68;;;;;;;30.09;41.48;101964.09;4918409;29;20092;-79
2021/07/22 11:01:48;;;;;;;10.75;8.88;;;;;;;30.39;40.88;101965.50;4918312;29;20063;-79
2021/07/22 11:04:34;;;;;;;13.07;9.15;;;;;;;30.26;40.95;101962.38;4916836;29;20481;-76
2021/07/22 11:07:02;;;;;;;10.98;8.57;;;;;;;30.50;40.83;101973.34;4908189;29;20486;-79
2021/07/22 11:09:44;;;;;;;11.57;9.18;;;;;;;30.62;40.15;101970.38;4937877;29;20071;-79
2021/07/22 11:12:31;;;;;;;11.48;8.85;;;;;;;30.58;40.51;101972.53;4916497;29;20049;-79
2021/07/22 11:15:02;;;;;;;12.63;8.90;;;;;;;30.37;40.34;101964.84;4913634;29;20048;-78